Airport METAR Information

LTBA 031920Z 05009KT 010V070 CAVOK 26/21 Q1010 NOSIG

VATSIM Livefeed

Card image cap

ATC Bookings

No position booked

Card image cap

Active ATC

Sector Full Name Rating Frequency
LTAI_APP Nidzhat Agalarov S2 119.650
LTAI_ATIS Nidzhat Agalarov S2 118.275

Blog

Read our latest news and get to know us better.